^^
Grace C. Lehan Memorial Weather Station Historical Data
Daily Summary for February 5, 2021 Units:  Metric    English   Both
Daily Weekly Monthly Yearly
  High: Low: Average:
Temperature: 5.5 °C 0.5 °C 2.9 °C
Dew Point: 1 °C -0.7 °C -0.1 °C
Humidity: 92% 67.8% 81%
Wind Speed: 6.4km/h 0km/h 1.6km/h
Wind Gust: 19.3km/h - -
Wind- - SW
Pressure: 1013.1 hPa 1010.4 hPa -
Precipitation: 0 mm    
 
 
Tabular Data for February 5, 2021
Time Temperature Dew Point Pressure Wind Wind Speed Wind Gust Humidity Rainfall Rate (Hourly) solar
00:04 0.7 °C -0.4 °C 1012.8 hPa Calm     92% 0 mm 0 W/m2
00:09 0.7 °C -0.4 °C 1012.8 hPa Calm     92% 0 mm 0 W/m2
00:14 0.7 °C -0.4 °C 1012.8 hPa Calm     92% 0 mm 0 W/m2
00:19 0.7 °C -0.4 °C 1012.8 hPa Calm     92% 0 mm 0 W/m2
00:24 0.7 °C -0.4 °C 1012.8 hPa Calm   1.6 km/h 92% 0 mm 0 W/m2
00:29 0.7 °C -0.5 °C 1012.4 hPa Calm   1.6 km/h 92% 0 mm 0 W/m2
00:34 0.7 °C -0.5 °C 1012.4 hPa Calm   1.6 km/h 92% 0 mm 0 W/m2
00:39 0.7 °C -0.5 °C 1012.4 hPa Calm     92% 0 mm 0 W/m2
00:44 0.6 °C -0.6 °C 1012.4 hPa Calm     92% 0 mm 0 W/m2
00:49 0.6 °C -0.6 °C 1012.4 hPa Calm   1.6 km/h 92% 0 mm 0 W/m2
00:54 0.5 °C -0.6 °C 1012.4 hPa Calm   1.6 km/h 92% 0 mm 0 W/m2
00:59 0.5 °C -0.7 °C 1012.4 hPa Calm   1.6 km/h 92% 0 mm 0 W/m2
01:04 0.5 °C -0.7 °C 1012.4 hPa Calm   3.2 km/h 92% 0 mm 0 W/m2
01:09 0.5 °C -0.7 °C 1012.4 hPa Calm   3.2 km/h 92% 0 mm 0 W/m2
01:14 0.5 °C -0.7 °C 1012.4 hPa NNW 0.2 km/h 4.8 km/h 92% 0 mm 0 W/m2
01:19 0.6 °C -0.6 °C 1012.4 hPa North 0.5 km/h 4.8 km/h 92% 0 mm 0 W/m2
01:24 0.6 °C -0.6 °C 1012.4 hPa Calm   4.8 km/h 92% 0 mm 0 W/m2
01:29 0.6 °C -0.6 °C 1012.4 hPa Calm   4.8 km/h 92% 0 mm 0 W/m2
01:34 0.6 °C -0.6 °C 1012.4 hPa Calm   4.8 km/h 92% 0 mm 0 W/m2
01:39 0.6 °C -0.5 °C 1012.4 hPa Calm   1.6 km/h 92% 0 mm 0 W/m2
01:44 0.7 °C -0.5 °C 1012.4 hPa Calm   1.6 km/h 92% 0 mm 0 W/m2
01:49 0.7 °C -0.5 °C 1012.4 hPa Calm   1.6 km/h 92% 0 mm 0 W/m2
01:54 0.7 °C -0.5 °C 1012.4 hPa North 0.8 km/h 4.8 km/h 92% 0 mm 0 W/m2
01:59 0.7 °C -0.5 °C 1012.4 hPa North 0.3 km/h 4.8 km/h 92% 0 mm 0 W/m2
02:04 0.7 °C -0.4 °C 1012.4 hPa North 0.3 km/h 4.8 km/h 92% 0 mm 0 W/m2
02:09 0.7 °C -0.4 °C 1012.4 hPa Calm   3.2 km/h 92% 0 mm 0 W/m2
02:14 0.7 °C -0.4 °C 1012.4 hPa Calm   3.2 km/h 92% 0 mm 0 W/m2
02:19 0.7 °C -0.4 °C 1012.4 hPa Calm   3.2 km/h 92% 0 mm 0 W/m2
02:24 0.7 °C -0.4 °C 1012.4 hPa Calm   3.2 km/h 92% 0 mm 0 W/m2
02:29 0.7 °C -0.4 °C 1012.4 hPa Calm   3.2 km/h 92% 0 mm 0 W/m2
02:34 0.7 °C -0.4 °C 1012.4 hPa Calm   3.2 km/h 92% 0 mm 0 W/m2
02:39 0.7 °C -0.4 °C 1012.4 hPa Calm     92% 0 mm 0 W/m2
02:44 0.7 °C -0.4 °C 1012.4 hPa Calm     92% 0 mm 0 W/m2
02:49 0.8 °C -0.4 °C 1012.4 hPa Calm     92% 0 mm 0 W/m2
02:54 0.8 °C -0.4 °C 1012.4 hPa Calm     92% 0 mm 0 W/m2
02:59 0.8 °C -0.4 °C 1012.1 hPa Calm     92% 0 mm 0 W/m2
03:04 0.8 °C -0.3 °C 1012.4 hPa Calm     92% 0 mm 0 W/m2
03:09 0.8 °C -0.3 °C 1012.4 hPa Calm     92% 0 mm 0 W/m2
03:14 0.8 °C -0.3 °C 1012.4 hPa Calm     92% 0 mm 0 W/m2
03:19 0.8 °C -0.3 °C 1012.4 hPa Calm     92% 0 mm 0 W/m2
03:24 0.8 °C -0.3 °C 1012.4 hPa Calm     92% 0 mm 0 W/m2
03:29 0.8 °C -0.3 °C 1012.4 hPa Calm     92% 0 mm 0 W/m2
03:34 0.8 °C -0.3 °C 1012.4 hPa Calm     92% 0 mm 0 W/m2
03:39 0.8 °C -0.3 °C 1012.4 hPa Calm     92% 0 mm 0 W/m2
03:44 0.8 °C -0.3 °C 1012.4 hPa Calm     92% 0 mm 0 W/m2
03:49 0.8 °C -0.3 °C 1012.4 hPa Calm     92% 0 mm 0 W/m2
03:54 0.9 °C -0.3 °C 1012.4 hPa Calm     92% 0 mm 0 W/m2
03:59 0.9 °C -0.3 °C 1012.4 hPa Calm     92% 0 mm 0 W/m2
04:04 0.9 °C -0.3 °C 1012.4 hPa Calm     92% 0 mm 0 W/m2
04:09 0.9 °C -0.3 °C 1012.4 hPa Calm     92% 0 mm 0 W/m2
04:14 0.9 °C -0.3 °C 1012.4 hPa North 0.3 km/h 4.8 km/h 92% 0 mm 0 W/m2
04:19 0.9 °C -0.3 °C 1012.4 hPa Calm   4.8 km/h 92% 0 mm 0 W/m2
04:24 0.9 °C -0.3 °C 1012.4 hPa Calm   4.8 km/h 92% 0 mm 0 W/m2
04:25 0.9 °C -0.3 °C 1012.4 hPa Calm   4.8 km/h 92% 0 mm 0 W/m2
04:30 0.9 °C -0.3 °C 1012.4 hPa Calm   4.8 km/h 92% 0 mm 0 W/m2
05:00 0.8 °C -0.3 °C 1012.4 hPa Calm     92% 0 mm 0 W/m2
05:30 0.8 °C -0.4 °C 1012.4 hPa Calm     92% 0 mm 0 W/m2
06:00 0.7 °C -0.4 °C 1012.8 hPa Calm     92% 0 mm 0 W/m2
06:30 0.7 °C -0.4 °C 1012.8 hPa Calm   4.8 km/h 92% 0 mm 0 W/m2
07:00 0.8 °C -0.4 °C 1012.8 hPa North 1.6 km/h 8 km/h 92% 0 mm 0 W/m2
07:30 0.9 °C -0.4 °C 1013.1 hPa Calm   4.8 km/h 91% 0 mm 1 W/m2
08:04 1.1 °C -0.3 °C 1013.1 hPa Calm   4.8 km/h 90.1% 0 mm 30 W/m2
08:09 1.1 °C -0.3 °C 1013.1 hPa North 0.6 km/h 4.8 km/h 90% 0 mm 33 W/m2
08:14 1.2 °C -0.3 °C 1013.1 hPa Calm   4.8 km/h 90% 0 mm 37 W/m2
08:19 1.2 °C -0.3 °C 1013.1 hPa Calm   4.8 km/h 90% 0 mm 42 W/m2
08:24 1.2 °C -0.4 °C 1013.1 hPa North 0.3 km/h 4.8 km/h 89% 0 mm 49 W/m2
08:29 1.3 °C -0.3 °C 1013.1 hPa Calm   4.8 km/h 89% 0 mm 56 W/m2
08:34 1.3 °C -0.3 °C 1013.1 hPa Calm   4.8 km/h 89% 0 mm 62 W/m2
08:39 1.4 °C -0.2 °C 1013.1 hPa Calm     89% 0 mm 65 W/m2
08:44 1.5 °C -0.1 °C 1013.1 hPa North 1.1 km/h 4.8 km/h 89% 0 mm 69 W/m2
08:49 1.6 °C -0.2 °C 1013.1 hPa Calm   4.8 km/h 88.1% 0 mm 74 W/m2
08:54 1.6 °C -0.1 °C 1013.1 hPa Calm   4.8 km/h 88% 0 mm 77 W/m2
08:59 1.7 °C -0.2 °C 1013.1 hPa Calm   4.8 km/h 87.3% 0 mm 83 W/m2
09:04 1.8 °C -0.1 °C 1013.1 hPa Calm   4.8 km/h 87% 0 mm 88 W/m2
09:09 1.9 °C -0.1 °C 1013.1 hPa Calm     86.9% 0 mm 93 W/m2
09:14 2 °C -0.1 °C 1013.1 hPa NNW 1.4 km/h 8 km/h 86% 0 mm 97 W/m2
09:19 2.1 °C -0.2 °C 1013.1 hPa NNW 0.6 km/h 8 km/h 85.1% 0 mm 102 W/m2
09:24 2.2 °C -0.1 °C 1013.1 hPa Calm   8 km/h 85% 0 mm 109 W/m2
09:29 2.3 °C 0 °C 1013.1 hPa NNW 1.6 km/h 8 km/h 85% 0 mm 116 W/m2
09:34 2.4 °C 0 °C 1013.1 hPa NNW 3.9 km/h 8 km/h 84.1% 0 mm 127 W/m2
09:39 2.4 °C -0.1 °C 1013.1 hPa NNW 2.3 km/h 8 km/h 83% 0 mm 130 W/m2
09:44 2.6 °C -0.1 °C 1013.1 hPa NNW 3.4 km/h 9.7 km/h 82.7% 0 mm 134 W/m2
09:49 2.7 °C -0.2 °C 1013.1 hPa North 3.2 km/h 9.7 km/h 81.7% 0 mm 139 W/m2
09:54 2.8 °C -0.2 °C 1013.1 hPa NNW 4.2 km/h 11.3 km/h 81% 0 mm 146 W/m2
09:59 2.9 °C -0.1 °C 1013.1 hPa NNW 3.1 km/h 11.3 km/h 80.8% 0 mm 148 W/m2
10:04 2.9 °C -0.1 °C 1012.8 hPa North 2.4 km/h 11.3 km/h 80.2% 0 mm 148 W/m2
10:09 3.1 °C -0.1 °C 1012.8 hPa North 2.7 km/h 9.7 km/h 80% 0 mm 148 W/m2
10:14 3.2 °C -0.1 °C 1012.8 hPa NNE 1.3 km/h 9.7 km/h 79.5% 0 mm 149 W/m2
10:19 3.3 °C 0 °C 1012.8 hPa NNW 4.5 km/h 14.5 km/h 79.2% 0 mm 153 W/m2
10:24 3.3 °C 0 °C 1012.8 hPa North 4 km/h 14.5 km/h 78.7% 0 mm 158 W/m2
10:29 3.3 °C -0.1 °C 1012.8 hPa NNW 2.3 km/h 14.5 km/h 78% 0 mm 167 W/m2
10:34 3.4 °C -0.1 °C 1012.4 hPa North 3.7 km/h 14.5 km/h 77.8% 0 mm 179 W/m2
10:39 3.5 °C 0 °C 1012.4 hPa North 1.4 km/h 8 km/h 78% 0 mm 192 W/m2
10:44 3.7 °C 0.2 °C 1012.1 hPa North 2.6 km/h 8 km/h 78% 0 mm 204 W/m2
10:49 3.8 °C 0.4 °C 1012.1 hPa North 1.3 km/h 8 km/h 78% 0 mm 193 W/m2
10:54 4.1 °C 0.5 °C 1012.1 hPa NNW 2.6 km/h 9.7 km/h 77.8% 0 mm 216 W/m2
10:59 4.2 °C 0.6 °C 1012.1 hPa NNW 1.9 km/h 9.7 km/h 77.4% 0 mm 218 W/m2
11:04 4.5 °C 0.8 °C 1012.1 hPa NNW 5.3 km/h 16.1 km/h 77.1% 0 mm 223 W/m2
11:09 4.7 °C 0.6 °C 1012.1 hPa NNW 3.4 km/h 16.1 km/h 75.1% 0 mm 193 W/m2
11:14 4.7 °C 0.5 °C 1011.7 hPa North 6.4 km/h 16.1 km/h 74.2% 0 mm 223 W/m2
11:19 4.7 °C 0.6 °C 1011.7 hPa NE 1.8 km/h 16.1 km/h 74.8% 0 mm 221 W/m2
11:24 4.8 °C 0.8 °C 1011.7 hPa North 5.3 km/h 16.1 km/h 75.2% 0 mm 197 W/m2
11:29 4.8 °C 0.8 °C 1011.7 hPa NNW 5 km/h 16.1 km/h 75% 0 mm 190 W/m2
11:34 4.8 °C 0.9 °C 1011.7 hPa North 2.9 km/h 16.1 km/h 75.7% 0 mm 213 W/m2
11:39 4.9 °C 0.9 °C 1011.4 hPa NE 3.5 km/h 9.7 km/h 75.2% 0 mm 223 W/m2
11:44 4.9 °C 0.8 °C 1011.7 hPa North 4.2 km/h 11.3 km/h 74.5% 0 mm 223 W/m2
11:49 5 °C 0.8 °C 1011.7 hPa NNE 3.4 km/h 11.3 km/h 74.5% 0 mm 181 W/m2
11:54 5.1 °C 1 °C 1011.4 hPa NNW 4.2 km/h 11.3 km/h 75% 0 mm 153 W/m2
11:59 5.1 °C 0.9 °C 1011.4 hPa NW 4.8 km/h 16.1 km/h 74.7% 0 mm 160 W/m2
12:04 4.9 °C 0.7 °C 1011.1 hPa NW 5.1 km/h 6.4 km/h 74% 0 mm 172 W/m2
12:09 4.8 °C 0.7 °C 1011.1 hPa North 2.4 km/h 14.5 km/h 74.6% 0 mm 172 W/m2
12:14 4.8 °C 0.7 °C 1011.1 hPa NNE 4.7 km/h 14.5 km/h 75% 0 mm 151 W/m2
12:19 4.8 °C 0.8 °C 1011.1 hPa NNE 3.5 km/h 14.5 km/h 75% 0 mm 373 W/m2
12:24 5.1 °C 0.9 °C 1011.1 hPa North 4.3 km/h 14.5 km/h 74.7% 0 mm 366 W/m2
12:29 5.2 °C 0.9 °C 1011.1 hPa NW 3.5 km/h 16.1 km/h 73.4% 0 mm 167 W/m2
12:34 5.2 °C 0.7 °C 1010.7 hPa North 5.3 km/h 16.1 km/h 72.7% 0 mm 195 W/m2
12:39 5.2 °C 0.8 °C 1010.7 hPa North 3.2 km/h 11.3 km/h 72.9% 0 mm 237 W/m2
12:44 5.2 °C 0.6 °C 1010.7 hPa NNE 2.1 km/h 11.3 km/h 72.1% 0 mm 232 W/m2
12:49 5.3 °C 0.4 °C 1010.7 hPa North 4.3 km/h 11.3 km/h 71% 0 mm 206 W/m2
12:54 5.3 °C 0.3 °C 1010.7 hPa NNE 3.4 km/h 11.3 km/h 69.9% 0 mm 297 W/m2
12:59 5.3 °C 0.1 °C 1010.4 hPa ENE 4.2 km/h 14.5 km/h 68.5% 0 mm 311 W/m2
13:04 5.4 °C 0.2 °C 1010.4 hPa NE 2.9 km/h 14.5 km/h 68.8% 0 mm 200 W/m2
13:09 5.5 °C 0.3 °C 1010.4 hPa NE 3.4 km/h 11.3 km/h 69% 0 mm 200 W/m2
13:14 5.5 °C 0.2 °C 1010.4 hPa NNW 4.3 km/h 14.5 km/h 68.3% 0 mm 100 W/m2
13:19 5.4 °C 0 °C 1010.4 hPa NNW 4.3 km/h 14.5 km/h 68% 0 mm 251 W/m2
13:24 5.3 °C 0.1 °C 1010.4 hPa NE 2.6 km/h 14.5 km/h 68.9% 0 mm 304 W/m2
13:29 5.3 °C -0.1 °C 1010.4 hPa NNW 0.6 km/h 14.5 km/h 68.5% 0 mm 127 W/m2
13:34 5.3 °C 0.2 °C 1010.4 hPa North 3.1 km/h 16.1 km/h 69.7% 0 mm 125 W/m2
13:39 5.3 °C 0.3 °C 1010.7 hPa NNE 1 km/h 16.1 km/h 70.1% 0 mm 132 W/m2
13:44 5.3 °C 0.4 °C 1010.7 hPa NNW 5.5 km/h 17.7 km/h 70.7% 0 mm 141 W/m2
13:49 5.3 °C 0.2 °C 1010.7 hPa NNW 4.2 km/h 17.7 km/h 70% 0 mm 123 W/m2
13:54 5.2 °C 0.1 °C 1010.4 hPa NNW 4.8 km/h 17.7 km/h 69.3% 0 mm 88 W/m2
13:59 5.1 °C -0.1 °C 1010.4 hPa NNW 1.6 km/h 17.7 km/h 69% 0 mm 79 W/m2
14:04 5.1 °C 0 °C 1010.4 hPa NNW 2.6 km/h 17.7 km/h 69.8% 0 mm 104 W/m2
14:09 5 °C 0 °C 1010.4 hPa NNW 0.5 km/h 11.3 km/h 70.1% 0 mm 193 W/m2
14:14 5.1 °C 0.1 °C 1010.4 hPa NNW 1.8 km/h 14.5 km/h 70% 0 mm 193 W/m2
14:19 5.2 °C 0 °C 1010.4 hPa NNW 3.7 km/h 19.3 km/h 69.1% 0 mm 114 W/m2
14:24 5.3 °C 0.1 °C 1010.4 hPa NNE 1.6 km/h 19.3 km/h 69% 0 mm 116 W/m2
14:29 5.3 °C -0.1 °C 1010.7 hPa NE 4 km/h 19.3 km/h 68.4% 0 mm 102 W/m2
14:34 5.2 °C -0.3 °C 1010.7 hPa ENE 1.1 km/h 19.3 km/h 67.8% 0 mm 100 W/m2
14:39 5.2 °C -0.1 °C 1010.7 hPa ENE 1.9 km/h 8 km/h 69% 0 mm 100 W/m2
14:44 5.2 °C -0.1 °C 1010.7 hPa North 1.6 km/h 8 km/h 68.8% 0 mm 86 W/m2
14:49 5.2 °C -0.1 °C 1010.7 hPa North 3.4 km/h 14.5 km/h 69% 0 mm 72 W/m2
14:54 5.1 °C -0.1 °C 1010.7 hPa NNW 1.3 km/h 14.5 km/h 69% 0 mm 77 W/m2
14:59 5.1 °C -0.1 °C 1010.7 hPa NE 1.1 km/h 14.5 km/h 69% 0 mm 70 W/m2
15:04 5.1 °C -0.1 °C 1010.7 hPa North 1.9 km/h 14.5 km/h 69% 0 mm 60 W/m2
15:09 5.1 °C -0.1 °C 1010.7 hPa NNW 0.5 km/h 9.7 km/h 69.5% 0 mm 54 W/m2
15:14 5.1 °C -0.1 °C 1011.1 hPa North 0.2 km/h 9.7 km/h 69.4% 0 mm 56 W/m2
15:19 5.1 °C -0.1 °C 1011.1 hPa North 1.1 km/h 9.7 km/h 69.2% 0 mm 53 W/m2
15:24 5 °C -0.1 °C 1011.1 hPa North 3.5 km/h 11.3 km/h 69.5% 0 mm 47 W/m2
15:29 5 °C 0 °C 1011.1 hPa North 4.2 km/h 17.7 km/h 70% 0 mm 39 W/m2
15:34 4.9 °C -0.1 °C 1011.1 hPa NNW 2.1 km/h 19.3 km/h 70% 0 mm 33 W/m2
15:39 4.9 °C -0.1 °C 1011.1 hPa NNW 3.2 km/h 19.3 km/h 70% 0 mm 30 W/m2
15:44 4.8 °C -0.2 °C 1011.4 hPa NNW 4.7 km/h 19.3 km/h 70% 0 mm 28 W/m2
15:49 4.7 °C -0.3 °C 1011.4 hPa NNW 1.9 km/h 19.3 km/h 70% 0 mm 25 W/m2
15:54 4.7 °C -0.2 °C 1011.4 hPa NNW 1.4 km/h 19.3 km/h 70.6% 0 mm 19 W/m2
15:59 4.6 °C -0.3 °C 1011.4 hPa NNW 2.9 km/h 19.3 km/h 70.5% 0 mm 14 W/m2
16:00 4.6 °C -0.4 °C 1011.4 hPa Calm   19.3 km/h 70% 0 mm 12 W/m2
16:09 4.5 °C -0.3 °C 1011.4 hPa NW 1.6 km/h 11.3 km/h 70.9% 0 mm 12 W/m2
16:14 4.4 °C -0.4 °C 1011.4 hPa NNW 3.9 km/h 11.3 km/h 70.9% 0 mm 11 W/m2
16:19 4.4 °C -0.4 °C 1011.7 hPa NNW 0.5 km/h 11.3 km/h 71% 0 mm 9 W/m2
16:24 4.4 °C -0.4 °C 1011.7 hPa NW 2.1 km/h 11.3 km/h 71% 0 mm 7 W/m2
16:29 4.3 °C -0.4 °C 1011.7 hPa NNW 2.3 km/h 11.3 km/h 71% 0 mm 0 W/m2
16:34 4.3 °C -0.4 °C 1011.7 hPa NNW 4.2 km/h 11.3 km/h 71.7% 0 mm 0 W/m2
16:39 4.3 °C -0.3 °C 1011.7 hPa NNW 0.2 km/h 9.7 km/h 71.8% 0 mm 0 W/m2
16:44 4.3 °C -0.3 °C 1011.7 hPa NNW 1 km/h 9.7 km/h 72% 0 mm 0 W/m2
16:49 4.2 °C -0.4 °C 1011.7 hPa NNW 0.6 km/h 9.7 km/h 72% 0 mm 0 W/m2
16:54 4.2 °C -0.3 °C 1011.7 hPa Calm   9.7 km/h 72.4% 0 mm 0 W/m2
16:59 4.2 °C -0.2 °C 1011.7 hPa NNW 0.6 km/h 9.7 km/h 73% 0 mm 0 W/m2
17:04 4.2 °C -0.3 °C 1011.7 hPa North 1.1 km/h 9.7 km/h 73% 0 mm 0 W/m2
17:09 4.1 °C -0.3 °C 1012.1 hPa NNW 1.1 km/h 8 km/h 73% 0 mm 0 W/m2
17:14 4.1 °C -0.3 °C 1011.7 hPa NNW 1.8 km/h 8 km/h 73% 0 mm 0 W/m2
17:19 4.1 °C -0.2 °C 1012.1 hPa NNW 0.5 km/h 8 km/h 73.7% 0 mm 0 W/m2
17:24 4.1 °C -0.2 °C 1012.1 hPa North 1.1 km/h 9.7 km/h 74% 0 mm 0 W/m2
17:29 4 °C -0.2 °C 1012.1 hPa NNE 0.5 km/h 9.7 km/h 74% 0 mm 0 W/m2
17:34 3.9 °C -0.3 °C 1012.1 hPa NNE 0.5 km/h 9.7 km/h 74% 0 mm 0 W/m2
17:39 3.9 °C -0.3 °C 1012.1 hPa NNW 3.1 km/h 11.3 km/h 74% 0 mm 0 W/m2
17:44 3.9 °C -0.3 °C 1012.1 hPa NNW 2.7 km/h 11.3 km/h 74.3% 0 mm 0 W/m2
17:49 3.9 °C -0.2 °C 1012.1 hPa North 1.8 km/h 11.3 km/h 74.8% 0 mm 0 W/m2
17:54 3.8 °C -0.2 °C 1012.1 hPa NE 1 km/h 11.3 km/h 75% 0 mm 0 W/m2
17:59 3.8 °C -0.2 °C 1012.1 hPa NNW 2.7 km/h 11.3 km/h 75% 0 mm 0 W/m2
18:03 3.8 °C -0.2 °C 1012.1 hPa NNW 3.4 km/h 11.3 km/h 75% 0 mm 0 W/m2
Hartford County Weather
Compliments of Weather Underground - 4 mb